createdAt,value
2018-01-22T00:02:07.943Z,100159.59
2018-01-22T00:04:34.868Z,100161.03
2018-01-22T00:07:03.987Z,100164.45
2018-01-22T00:09:31.639Z,100167.97
2018-01-22T00:11:58.677Z,100158.38
2018-01-22T00:14:25.632Z,100156.45
2018-01-22T00:16:53.309Z,100159.20
2018-01-22T00:19:20.225Z,100146.38
2018-01-22T00:21:47.116Z,100149.80
2018-01-22T00:24:14.822Z,100148.24
2018-01-22T00:26:41.748Z,100140.27
2018-01-22T00:29:09.471Z,100115.89
2018-01-22T00:31:36.356Z,100094.68
2018-01-22T00:34:09.261Z,100092.36
2018-01-22T00:36:36.237Z,100091.61
2018-01-22T00:39:04.068Z,100080.31
2018-01-22T00:41:30.925Z,100071.66
2018-01-22T00:43:57.822Z,100071.52
2018-01-22T00:46:24.736Z,100064.30
2018-01-22T00:48:51.717Z,100057.84
2018-01-22T00:51:18.699Z,100055.45
2018-01-22T00:53:45.562Z,100055.41
2018-01-22T00:56:12.479Z,100053.68
2018-01-22T00:58:40.115Z,100052.23
2018-01-22T01:01:07.043Z,100052.42
2018-01-22T01:03:33.893Z,100037.62
2018-01-22T01:06:01.530Z,100033.55
2018-01-22T01:08:28.443Z,100028.59
2018-01-22T01:10:55.351Z,100010.61
2018-01-22T01:13:22.393Z,100003.40
2018-01-22T01:15:49.313Z,99989.89
2018-01-22T01:18:16.928Z,99986.64
2018-01-22T01:20:43.803Z,99983.95
2018-01-22T01:23:10.799Z,99974.86
2018-01-22T01:25:37.725Z,99965.43
2018-01-22T01:28:05.361Z,99963.33
2018-01-22T01:30:32.969Z,99960.55
2018-01-22T01:32:59.881Z,99963.52
2018-01-22T01:35:26.771Z,99958.62
2018-01-22T01:37:54.434Z,99962.55
2018-01-22T01:40:21.294Z,99969.06
2018-01-22T01:42:48.170Z,99963.28
2018-01-22T01:45:15.800Z,99954.27
2018-01-22T01:47:42.674Z,99954.83
2018-01-22T01:50:09.647Z,99943.73
2018-01-22T01:52:36.627Z,99944.75
2018-01-22T01:55:03.521Z,99937.19
2018-01-22T01:57:30.401Z,99933.42
2018-01-22T01:59:57.321Z,99931.41
2018-01-22T02:02:25.117Z,99930.47
2018-01-22T02:04:52.873Z,99914.36
2018-01-22T02:07:19.834Z,99910.41
2018-01-22T02:09:47.605Z,99904.81
2018-01-22T02:12:14.507Z,99900.70
2018-01-22T02:14:41.622Z,99901.68
2018-01-22T02:17:08.569Z,99897.52
2018-01-22T02:19:35.610Z,99897.22
2018-01-22T02:22:02.564Z,99899.33
2018-01-22T02:24:29.543Z,99886.83
2018-01-22T02:26:56.484Z,99885.38
2018-01-22T02:29:23.392Z,99877.83
2018-01-22T02:31:50.342Z,99888.84
2018-01-22T02:34:18.294Z,99867.66
2018-01-22T02:36:46.236Z,99862.35
2018-01-22T02:39:13.249Z,99855.17
2018-01-22T02:41:40.985Z,99851.36
2018-01-22T02:44:08.058Z,99848.13
2018-01-22T02:46:35.012Z,99853.23
2018-01-22T02:49:02.157Z,99846.84
2018-01-22T02:51:29.136Z,99836.61
2018-01-22T02:53:56.318Z,99841.48
2018-01-22T02:56:23.222Z,99836.11
2018-01-22T02:58:50.918Z,99836.38
2018-01-22T03:01:17.870Z,99828.32
2018-01-22T03:03:45.572Z,99816.88
2018-01-22T03:06:12.678Z,99813.17
2018-01-22T03:08:39.690Z,99798.08
2018-01-22T03:11:07.422Z,99798.95
2018-01-22T03:13:34.419Z,99802.86
2018-01-22T03:16:02.133Z,99794.61
2018-01-22T03:18:29.892Z,99799.25
2018-01-22T03:20:57.609Z,99799.89
2018-01-22T03:23:25.462Z,99800.98
2018-01-22T03:25:53.192Z,99795.81
2018-01-22T03:28:20.021Z,99794.39
2018-01-22T03:30:46.838Z,99794.52
2018-01-22T03:33:13.717Z,99800.11
2018-01-22T03:35:41.287Z,99793.56
2018-01-22T03:38:08.157Z,99783.06
2018-01-22T03:40:35.742Z,99782.70
2018-01-22T03:43:03.410Z,99771.73
2018-01-22T03:45:30.229Z,99769.92
2018-01-22T03:47:57.059Z,99765.36
2018-01-22T03:50:24.136Z,99778.70
2018-01-22T03:52:51.089Z,99788.20
2018-01-22T03:55:18.026Z,99775.08
2018-01-22T03:57:46.220Z,99774.14
2018-01-22T04:00:15.270Z,99776.80
2018-01-22T04:02:43.518Z,99776.80
2018-01-22T04:05:12.194Z,99770.31
2018-01-22T04:07:39.648Z,99765.69
2018-01-22T04:10:07.181Z,99749.23
2018-01-22T04:12:34.844Z,99752.52
2018-01-22T04:15:03.651Z,99760.99
2018-01-22T04:17:32.953Z,99768.09
2018-01-22T04:20:00.167Z,99767.09
2018-01-22T04:22:27.841Z,99766.66
2018-01-22T04:24:55.858Z,99772.22
2018-01-22T04:27:23.286Z,99770.33
2018-01-22T04:29:54.432Z,99755.02
2018-01-22T04:32:22.594Z,99745.59
2018-01-22T04:34:53.050Z,99746.97
2018-01-22T04:37:23.131Z,99748.93
2018-01-22T04:39:53.873Z,99742.11
2018-01-22T04:42:22.275Z,99741.80
2018-01-22T04:44:49.835Z,99734.75
2018-01-22T04:47:20.202Z,99732.56
2018-01-22T04:49:51.450Z,99724.59
2018-01-22T04:52:18.574Z,99720.89
2018-01-22T04:54:46.441Z,99718.81
2018-01-22T04:57:13.566Z,99717.58
2018-01-22T04:59:41.337Z,99716.91
2018-01-22T05:02:08.400Z,99707.52
2018-01-22T05:04:35.560Z,99693.84
2018-01-22T05:07:03.317Z,99688.18
2018-01-22T05:09:30.263Z,99673.36
2018-01-22T05:11:57.249Z,99666.67
2018-01-22T05:14:24.266Z,99672.54
2018-01-22T05:16:51.272Z,99666.34
2018-01-22T05:19:18.144Z,99656.55
2018-01-22T05:21:45.081Z,99653.78
2018-01-22T05:24:12.026Z,99654.82
2018-01-22T05:26:38.953Z,99662.07
2018-01-22T05:29:05.970Z,99665.05
2018-01-22T05:31:32.878Z,99654.14
2018-01-22T05:33:59.833Z,99654.96
2018-01-22T05:36:31.716Z,99655.39
2018-01-22T05:39:21.321Z,99648.78
2018-01-22T06:04:58.273Z,99645.73
2018-01-22T06:52:48.895Z,99674.51
2018-01-22T06:55:17.459Z,99690.08
2018-01-22T06:57:45.840Z,99690.27
2018-01-22T07:00:15.435Z,99692.88
2018-01-22T07:02:44.609Z,99702.05
2018-01-22T07:05:13.041Z,99697.85
2018-01-22T07:07:43.262Z,99702.84
2018-01-22T07:31:36.701Z,99680.01
2018-01-22T07:34:09.838Z,99684.83
2018-01-22T07:36:39.437Z,99689.47
2018-01-22T07:39:12.827Z,99703.83
2018-01-22T07:41:43.601Z,99695.37
2018-01-22T07:59:21.677Z,99710.77
2018-01-22T08:07:18.096Z,99726.22
2018-01-22T08:09:45.331Z,99729.83
2018-01-22T08:12:12.662Z,99718.04
2018-01-22T08:14:40.081Z,99716.38
2018-01-22T08:17:07.249Z,99720.94
2018-01-22T08:19:34.741Z,99718.16
2018-01-22T08:22:02.853Z,99715.95
2018-01-22T08:24:30.501Z,99712.98
2018-01-22T08:26:57.875Z,99705.84
2018-01-22T08:29:30.848Z,99713.52
2018-01-22T08:31:59.272Z,99708.21
2018-01-22T09:13:23.946Z,99748.09
2018-01-22T09:15:51.203Z,99750.99
2018-01-22T09:18:18.275Z,99757.21
2018-01-22T09:20:45.357Z,99759.98
2018-01-22T09:23:13.341Z,99752.62
2018-01-22T09:25:40.444Z,99762.16
2018-01-22T09:28:07.522Z,99765.37
2018-01-22T09:30:34.661Z,99769.88
2018-01-22T09:33:02.536Z,99778.59
2018-01-22T09:35:30.400Z,99780.78
2018-01-22T09:37:57.472Z,99781.98
2018-01-22T09:40:24.724Z,99788.62
2018-01-22T09:42:51.712Z,99782.39
2018-01-22T09:45:19.579Z,99778.51
2018-01-22T09:47:47.148Z,99777.70
2018-01-22T09:50:14.428Z,99777.70
2018-01-22T09:52:42.712Z,99776.27
2018-01-22T09:55:09.817Z,99782.78
2018-01-22T09:57:36.985Z,99785.11
2018-01-22T10:00:05.132Z,99788.86
2018-01-22T10:02:32.309Z,99797.98
2018-01-22T10:04:59.525Z,99797.98
2018-01-22T10:07:26.836Z,99792.42
2018-01-22T10:09:54.193Z,99800.98
2018-01-22T10:12:21.543Z,99800.45
2018-01-22T10:14:48.926Z,99792.41
2018-01-22T10:17:16.550Z,99794.03
2018-01-22T10:19:43.708Z,99797.16
2018-01-22T10:22:10.836Z,99794.25
2018-01-22T10:24:43.519Z,99804.63
2018-01-22T10:27:10.696Z,99798.88
2018-01-22T10:29:37.962Z,99799.44
2018-01-22T10:32:06.606Z,99809.47
2018-01-22T10:34:33.999Z,99806.89
2018-01-22T10:37:06.916Z,99806.62
2018-01-22T10:39:34.234Z,99812.41
2018-01-22T10:42:01.960Z,99813.26
2018-01-22T10:44:29.384Z,99819.10
2018-01-22T10:46:56.859Z,99821.56
2018-01-22T10:49:24.079Z,99819.64
2018-01-22T10:51:51.221Z,99822.36
2018-01-22T10:54:18.350Z,99823.15
2018-01-22T10:56:47.250Z,99824.17
2018-01-22T10:59:14.368Z,99814.02
2018-01-22T11:01:41.618Z,99815.86
2018-01-22T11:04:08.761Z,99808.05
2018-01-22T11:06:36.036Z,99811.89
2018-01-22T11:09:03.982Z,99814.06
2018-01-22T11:11:31.175Z,99808.95
2018-01-22T11:14:01.879Z,99809.05
2018-01-22T11:16:28.797Z,99807.27
2018-01-22T11:18:56.443Z,99807.14
2018-01-22T11:21:23.545Z,99808.56
2018-01-22T11:23:51.195Z,99815.94
2018-01-22T11:26:18.184Z,99809.28
2018-01-22T11:28:45.921Z,99816.99
2018-01-22T11:31:12.826Z,99817.64
2018-01-22T11:33:39.799Z,99811.05
2018-01-22T11:36:11.153Z,99822.22
2018-01-22T11:38:38.802Z,99817.66
2018-01-22T11:41:05.752Z,99821.70
2018-01-22T11:43:32.713Z,99818.16
2018-01-22T11:45:59.638Z,99811.16
2018-01-22T11:48:26.632Z,99814.02
2018-01-22T11:50:53.629Z,99814.12
2018-01-22T12:14:52.920Z,99825.94
2018-01-22T12:17:27.999Z,99843.79
2018-01-22T12:19:56.687Z,99847.37
2018-01-22T12:22:24.824Z,99850.31
2018-01-22T12:45:35.878Z,99863.63
2018-01-22T12:48:06.238Z,99872.96
2018-01-22T12:50:35.123Z,99879.25
2018-01-22T12:53:03.477Z,99892.18
2018-01-22T12:55:32.723Z,99897.17
2018-01-22T13:00:38.529Z,99891.77
2018-01-22T13:03:06.810Z,99893.89
2018-01-22T13:05:38.713Z,99897.20
2018-01-22T13:08:13.930Z,99899.63
2018-01-22T13:55:15.284Z,99943.89
2018-01-22T15:37:28.478Z,100109.46
2018-01-22T15:39:55.898Z,100113.48
2018-01-22T15:42:24.559Z,100118.92
2018-01-22T15:44:52.048Z,100121.65
2018-01-22T15:47:20.655Z,100131.33
2018-01-22T15:49:48.266Z,100130.20
2018-01-22T15:52:15.186Z,100139.69
2018-01-22T15:54:42.632Z,100146.25
2018-01-22T15:57:09.587Z,100153.93
2018-01-22T15:59:36.524Z,100166.81
2018-01-22T16:02:03.562Z,100173.97
2018-01-22T16:04:32.591Z,100185.91
2018-01-22T16:06:59.646Z,100186.06
2018-01-22T16:09:28.990Z,100191.79
2018-01-22T16:12:26.397Z,100197.88
2018-01-22T16:49:16.939Z,100283.61
2018-01-22T16:51:49.769Z,100278.36
2018-01-22T16:54:29.099Z,100280.49
2018-01-22T16:57:01.568Z,100276.83
2018-01-22T16:59:37.871Z,100291.95
2018-01-22T17:02:05.360Z,100300.75
2018-01-22T17:04:32.314Z,100298.00
2018-01-22T17:07:07.192Z,100302.67
2018-01-22T17:09:34.189Z,100314.83
2018-01-22T17:12:06.422Z,100319.38
2018-01-22T17:14:34.498Z,100326.91
2018-01-22T17:17:01.491Z,100328.70
2018-01-22T17:19:29.208Z,100326.58
2018-01-22T17:21:57.803Z,100334.57
2018-01-22T17:24:25.136Z,100344.28
2018-01-22T17:26:53.204Z,100351.19
2018-01-22T17:29:20.480Z,100348.50
2018-01-22T17:31:51.189Z,100345.32
2018-01-22T17:34:22.554Z,100354.37
2018-01-22T17:36:59.413Z,100360.41
2018-01-22T17:39:36.299Z,100362.69
2018-01-22T17:42:04.807Z,100364.28
2018-01-22T17:55:52.511Z,100393.13
2018-01-22T17:58:21.263Z,100403.19
2018-01-22T18:00:54.092Z,100410.13
2018-01-22T18:06:23.391Z,100420.30
2018-01-22T18:08:57.837Z,100424.73
2018-01-22T18:11:31.531Z,100430.16
2018-01-22T18:14:03.570Z,100431.81
2018-01-22T18:16:35.870Z,100440.33
2018-01-22T18:31:14.070Z,100465.39
2018-01-22T18:33:43.782Z,100465.41
2018-01-22T18:39:10.676Z,100466.11
2018-01-22T18:41:38.252Z,100468.64
2018-01-22T18:44:05.861Z,100472.23
2018-01-22T18:46:34.487Z,100471.33
2018-01-22T18:49:02.583Z,100479.08
2018-01-22T18:51:30.242Z,100483.94
2018-01-22T18:54:07.297Z,100494.11
2018-01-22T18:59:22.130Z,100503.50
2018-01-22T19:05:01.381Z,100496.12
2018-01-22T19:07:34.628Z,100504.95
2018-01-22T19:10:07.123Z,100506.29
2018-01-22T19:12:42.058Z,100516.17
2018-01-22T19:20:46.293Z,100528.95
2018-01-22T19:29:48.825Z,100545.34
2018-01-22T19:32:16.365Z,100563.73
2018-01-22T19:39:51.516Z,100564.16
2018-01-22T19:45:44.206Z,100574.83
2018-01-22T19:48:14.073Z,100590.10
2018-01-22T19:50:43.734Z,100584.62
2018-01-22T19:53:12.524Z,100584.17
2018-01-22T19:55:41.450Z,100595.25
2018-01-22T19:58:10.389Z,100605.17
2018-01-22T20:00:40.005Z,100593.41
2018-01-22T20:03:08.900Z,100592.63
2018-01-22T20:05:37.417Z,100590.36
2018-01-22T20:08:06.902Z,100598.17
2018-01-22T20:10:36.009Z,100608.70
2018-01-22T20:13:05.542Z,100623.41
2018-01-22T20:15:34.419Z,100621.52
2018-01-22T20:18:04.699Z,100626.16
2018-01-22T20:20:33.687Z,100635.78
2018-01-22T20:23:02.644Z,100633.43
2018-01-22T20:25:31.552Z,100631.13
2018-01-22T20:28:00.547Z,100634.67
2018-01-22T20:30:29.337Z,100637.69
2018-01-22T20:32:57.942Z,100641.66
2018-01-22T20:35:26.884Z,100648.80
2018-01-22T20:37:55.608Z,100648.05
2018-01-22T20:40:25.938Z,100648.62
2018-01-22T20:42:54.747Z,100655.80
2018-01-22T20:45:23.154Z,100672.14
2018-01-22T20:47:52.645Z,100672.05
2018-01-22T20:50:22.099Z,100681.86
2018-01-22T20:52:50.406Z,100670.20
2018-01-22T20:55:18.557Z,100684.56
2018-01-22T20:57:46.658Z,100681.23
2018-01-22T21:00:15.129Z,100684.32
2018-01-22T21:02:43.889Z,100697.39
2018-01-22T21:05:11.961Z,100700.77
2018-01-22T21:07:39.770Z,100701.71
2018-01-22T21:10:07.490Z,100712.40
2018-01-22T21:12:36.285Z,100718.92
2018-01-22T21:15:03.840Z,100714.65
2018-01-22T21:17:32.585Z,100717.17
2018-01-22T21:20:00.518Z,100714.31
2018-01-22T21:22:27.557Z,100715.53
2018-01-22T21:24:54.630Z,100735.14
2018-01-22T21:27:21.831Z,100739.58
2018-01-22T21:29:49.556Z,100744.20
2018-01-22T21:32:17.784Z,100742.51
2018-01-22T21:34:45.076Z,100743.25
2018-01-22T21:37:12.002Z,100757.08
2018-01-22T21:39:39.037Z,100761.03
2018-01-22T21:42:05.940Z,100763.97
2018-01-22T21:44:33.414Z,100760.88
2018-01-22T21:47:00.298Z,100763.09
2018-01-22T21:49:27.180Z,100763.83
2018-01-22T21:51:56.732Z,100757.83
2018-01-22T21:54:23.855Z,100764.09
2018-01-22T21:56:51.492Z,100767.97
2018-01-22T21:59:19.218Z,100775.94
2018-01-22T22:01:47.056Z,100773.92
2018-01-22T22:04:14.195Z,100776.53
2018-01-22T22:06:41.574Z,100778.52
2018-01-22T22:09:15.145Z,100778.80
2018-01-22T22:27:37.265Z,100820.30
2018-01-22T22:30:04.338Z,100813.27
2018-01-22T22:32:32.025Z,100819.84
2018-01-22T22:34:58.932Z,100820.25
2018-01-22T22:37:25.783Z,100826.73
2018-01-22T22:39:52.696Z,100832.44
2018-01-22T22:42:19.534Z,100845.73
2018-01-22T22:44:47.509Z,100844.03
2018-01-22T22:47:14.722Z,100845.66
2018-01-22T22:49:41.634Z,100840.62
2018-01-22T22:52:08.479Z,100840.17
2018-01-22T22:54:36.061Z,100847.78
2018-01-22T22:57:02.910Z,100844.85
2018-01-22T22:59:29.761Z,100843.74
2018-01-22T23:01:56.666Z,100846.59
2018-01-22T23:04:23.568Z,100851.86
2018-01-22T23:06:50.431Z,100857.92
2018-01-22T23:09:18.086Z,100858.08
2018-01-22T23:11:44.924Z,100865.59
2018-01-22T23:14:11.723Z,100878.73
2018-01-22T23:16:38.535Z,100881.34
2018-01-22T23:19:05.371Z,100877.72
2018-01-22T23:21:33.056Z,100888.80
2018-01-22T23:24:00.650Z,100888.75
2018-01-22T23:26:28.223Z,100894.87
2018-01-22T23:28:55.765Z,100902.67
2018-01-22T23:31:22.553Z,100903.84
2018-01-22T23:33:50.133Z,100911.75
2018-01-22T23:36:16.952Z,100923.65
2018-01-22T23:38:43.847Z,100923.32
2018-01-22T23:41:10.684Z,100922.89
2018-01-22T23:43:37.556Z,100926.28
2018-01-22T23:46:04.417Z,100931.15
2018-01-22T23:48:31.242Z,100935.09
2018-01-22T23:50:58.101Z,100944.06
2018-01-22T23:53:24.910Z,100950.94
2018-01-22T23:55:51.781Z,100954.83
2018-01-22T23:58:18.671Z,100956.33
